This is the latest recevied weather packets stored in our database for station/object WX5RP. If no packets are shown the sender has not sent any weather packets the latest 10 day(s).
| Time | Temp. | Humidity | Pressure | Rain* | Wind** | Luminosity | Snow |
|---|---|---|---|---|---|---|---|
| 1778053517 | 6.11° C | 78% | 1018.4 hPa | 0 mm | - | 0 W/m² | - |
| 1778052917 | 6.11° C | 77% | 1018 hPa | 0 mm | - | 0 W/m² | - |
| 1778052317 | 6.67° C | 75% | 1018.2 hPa | 0 mm | - | 0 W/m² | - |
| 1778051717 | 6.67° C | 74% | 1017.9 hPa | 0 mm | - | 0 W/m² | - |
| 1778051117 | 6.67° C | 73% | 1018 hPa | 0 mm | - | 0 W/m² | - |
| 1778050517 | 7.22° C | 72% | 1017.5 hPa | 0 mm | - | 0 W/m² | - |
| 1778049916 | 7.78° C | 72% | 1017.3 hPa | 0 mm | - | 0 W/m² | - |
| 1778049317 | 7.78° C | 73% | 1016.8 hPa | 0 mm | - | 0 W/m² | - |
| 1778048717 | 7.22° C | 74% | 1016.6 hPa | 0 mm | - | 0 W/m² | - |
| 1778048116 | 7.22° C | 75% | 1016.6 hPa | 0 mm | - | 0 W/m² | - |
| 1778047516 | 7.22° C | 75% | 1017.5 hPa | 0 mm | - | 0 W/m² | - |
| 1778046916 | 7.22° C | 73% | 1017.3 hPa | 0 mm | - | 0 W/m² | - |
| 1778046316 | 7.78° C | 69% | 1017.3 hPa | 0 mm | - | 0 W/m² | - |
| 1778045716 | 10.56° C | 61% | 1017 hPa | 0 mm | - | 0 W/m² | - |
| 1778045116 | 12.78° C | 52% | 1017.1 hPa | 0 mm | - | 0 W/m² | - |
| 1778044516 | 12.78° C | 51% | 1016.8 hPa | 0 mm | - | 0 W/m² | - |
| 1778043916 | 11.67° C | 57% | 1016.2 hPa | 0 mm | - | 0 W/m² | - |
| 1778043316 | 12.78° C | 54% | 1016.1 hPa | 0 mm | - | 0 W/m² | - |
| 1778042716 | 12.78° C | 52% | 1016.1 hPa | 0 mm | - | 0 W/m² | - |
| 1778042119 | 12.22° C | 52% | 1015.7 hPa | 0 mm | - | 0 W/m² | - |
| 1778041516 | 12.78° C | 52% | 1015.1 hPa | 0 mm | - | 0 W/m² | - |
| 1778040916 | 12.78° C | 51% | 1015.1 hPa | 0 mm | - | 0 W/m² | - |
| 1778040316 | 13.89° C | 50% | 1015.8 hPa | 0 mm | - | 0 W/m² | - |
| 1778039716 | 13.89° C | 49% | 1015.3 hPa | 0 mm | - | 0 W/m² | - |
| 1778039116 | 14.44° C | 52% | 1015.3 hPa | 0 mm | - | 0 W/m² | - |
* Rain latest hour (hover to see other rain measurements)
** Current wind speed in m/s (hover to see current wind gust speed)